KACK/ACK METAR and TAF weather

Enter ICAO airport designator
Station Type Date Time Source
KACK METAR 2020/06/06 13:07 UTC NOAA

KACK 061307Z 19008KT 1/4SM R24/1800V2600FT FG VV002 16/16 A2982 RMK AO2 P0001 T01610156


Station Type Date Time Source
KACK Decoded METAR 2020/06/06 13:07 UTC NOAA

NANTUCKET MEMORIAL AIRPORT, MA, United States (KACK) 41-15N 70-04W 16M
Jun 06, 2020 - 09:07 AM EDT / 2020.06.06 1307 UTC
Wind: from the S (190 degrees) at 9 MPH (8 KT) (direction variable):0
Visibility: 1/4 mile(s):0
Sky conditions: obscured
Weather: fog
Precipitation last hour: 0.01 inches
Temperature: 61.0 F (16.1 C)
Dew Point: 60.1 F (15.6 C)
Relative Humidity: 96%
Pressure (altimeter): 29.82 in. Hg (1009 hPa)
ob: KACK 061307Z 19008KT 1/4SM R24/1800V2600FT FG VV002 16/16 A2982 RMK AO2 P0001 T01610156
cycle: 13

Station Type Date Time Source
KACK TAF 2020/06/06 13:06 UTC NOAA

TAF
AMD KACK 061303Z 0613/0712 20008KT 1/2SM FG VV002
FM061700 21013G22KT 1/2SM FG OVC003
FM070000 24009KT 1 1/2SM BR VCSH OVC003
FM070500 31008KT 2SM BR BKN025
FM070900 35012KT P6SM SCT015
FM071100 02014KT P6SM BKN008

Example: see airport list